Time;durP1;ratioP1;P1;durP2;ratioP2;P2;SDS_P1;SDS_P2;PMS_P1;PMS_P2;Temp;Humidity;BMP_temperature;BMP_pressure;BME280_temperature;BME280_humidity;BME280_pressure;Samples;Min_cycle;Max_cycle;Signal;HPM_P1;HPM_P2
2023/05/22 00:01:10;;;;;;;3.38;3.08;;;22.00;95.30;;;;;;5067112;28;20314;-71
2023/05/22 00:03:37;;;;;;;3.40;3.20;;;22.00;95.30;;;;;;5067911;28;20213;-71
2023/05/22 00:06:09;;;;;;;5.57;3.30;;;21.90;95.40;;;;;;5067885;28;20520;-71
2023/05/22 00:08:36;;;;;;;3.50;3.10;;;21.90;95.30;;;;;;5067494;28;20587;-71
2023/05/22 00:11:03;;;;;;;3.58;3.30;;;21.90;95.30;;;;;;5067726;28;20677;-71
2023/05/22 00:13:30;;;;;;;3.25;3.05;;;21.90;95.40;;;;;;5067356;28;20660;-72
2023/05/22 00:15:57;;;;;;;3.42;3.13;;;21.90;95.50;;;;;;5067487;28;20318;-71
2023/05/22 00:18:25;;;;;;;3.22;2.97;;;21.90;95.50;;;;;;5067770;28;20212;-72
2023/05/22 00:20:53;;;;;;;4.60;3.38;;;21.90;95.40;;;;;;5067891;28;20211;-73
2023/05/22 00:23:22;;;;;;;3.28;3.08;;;21.80;95.40;;;;;;5067802;28;20203;-73
2023/05/22 00:25:49;;;;;;;3.13;2.85;;;21.90;95.40;;;;;;5068469;28;20209;-72
2023/05/22 00:28:16;;;;;;;4.45;3.53;;;21.80;95.70;;;;;;5068401;28;20914;-72
2023/05/22 00:30:43;;;;;;;4.05;3.28;;;21.80;95.50;;;;;;5068036;28;20290;-73
2023/05/22 00:33:10;;;;;;;4.53;2.83;;;21.70;95.40;;;;;;5067829;28;20290;-73
2023/05/22 00:35:37;;;;;;;3.58;3.22;;;21.70;95.40;;;;;;5067420;28;20246;-72
2023/05/22 00:38:05;;;;;;;4.35;3.40;;;21.70;95.50;;;;;;5068054;28;20218;-72
2023/05/22 00:40:33;;;;;;;3.50;3.30;;;21.70;95.50;;;;;;5067692;28;20232;-73
2023/05/22 00:43:07;;;;;;;3.92;3.10;;;21.70;95.60;;;;;;5067199;28;20706;-73
2023/05/22 00:45:33;;;;;;;3.42;3.10;;;21.70;95.50;;;;;;5067280;28;20443;-73
2023/05/22 00:48:00;;;;;;;3.25;2.95;;;21.70;95.50;;;;;;5067423;28;20318;-73
2023/05/22 00:50:27;;;;;;;4.03;3.00;;;21.70;95.50;;;;;;5067225;28;20223;-73
2023/05/22 00:52:54;;;;;;;3.70;2.75;;;21.60;95.50;;;;;;5067269;28;20665;-74
2023/05/22 00:55:21;;;;;;;4.28;3.08;;;21.60;95.60;;;;;;5066703;28;20595;-73
2023/05/22 00:57:50;;;;;;;3.05;2.85;;;21.60;95.50;;;;;;5067581;28;20246;-73
2023/05/22 01:00:18;;;;;;;4.82;3.38;;;21.60;95.80;;;;;;5066641;28;20642;-73
2023/05/22 01:02:45;;;;;;;3.90;2.97;;;21.60;95.40;;;;;;5067134;28;20235;-73
2023/05/22 01:05:16;;;;;;;6.13;3.10;;;21.50;95.40;;;;;;5066921;28;20214;-73
2023/05/22 01:07:44;;;;;;;4.60;3.10;;;21.50;95.40;;;;;;5066821;28;20269;-73
2023/05/22 01:10:11;;;;;;;3.38;2.85;;;21.50;95.70;;;;;;5067255;28;20298;-73
2023/05/22 01:12:46;;;;;;;3.53;3.15;;;21.40;95.60;;;;;;5066102;28;20323;-73
2023/05/22 01:15:23;;;;;;;3.92;2.97;;;21.40;95.50;;;;;;5066483;28;20205;-73
2023/05/22 01:18:03;;;;;;;3.45;3.15;;;21.40;95.40;;;;;;5066441;28;20203;-73
2023/05/22 01:20:35;;;;;;;3.38;2.97;;;21.30;95.40;;;;;;5066661;28;20213;-73
2023/05/22 01:23:33;;;;;;;3.40;3.20;;;21.40;95.50;;;;;;5061714;28;20243;-72
2023/05/22 01:26:36;;;;;;;3.05;2.65;;;21.30;95.50;;;;;;5047375;28;20188;-73
2023/05/22 01:29:29;;;;;;;3.60;3.30;;;21.20;95.40;;;;;;5047275;28;20219;-74
2023/05/22 01:32:01;;;;;;;2.88;2.67;;;21.20;95.60;;;;;;5061478;28;20215;-73
2023/05/22 01:34:29;;;;;;;3.38;3.08;;;21.20;95.70;;;;;;5066572;28;20667;-73
2023/05/22 01:36:57;;;;;;;3.42;3.10;;;21.10;95.90;;;;;;5067010;28;20203;-74
2023/05/22 01:39:25;;;;;;;4.82;3.53;;;21.10;96.00;;;;;;5066439;28;20226;-73
2023/05/22 01:41:52;;;;;;;4.82;3.30;;;21.00;96.00;;;;;;5066190;28;20753;-72
2023/05/22 01:44:19;;;;;;;18.48;3.55;;;20.90;96.00;;;;;;5066250;28;20235;-72
2023/05/22 01:46:46;;;;;;;3.15;2.85;;;20.90;96.10;;;;;;5065810;28;20314;-72
2023/05/22 01:49:14;;;;;;;3.63;2.90;;;20.90;96.10;;;;;;5066496;28;20303;-72
2023/05/22 01:51:49;;;;;;;4.82;3.15;;;20.90;96.20;;;;;;5065898;28;20195;-72
2023/05/22 01:54:22;;;;;;;3.40;3.10;;;20.90;96.00;;;;;;5066104;28;20219;-72
2023/05/22 01:56:54;;;;;;;3.28;2.78;;;20.90;96.10;;;;;;5065940;28;20286;-72
2023/05/22 01:59:29;;;;;;;3.45;3.20;;;20.80;96.00;;;;;;5065941;28;20341;-72
2023/05/22 02:02:00;;;;;;;3.92;3.00;;;20.90;96.00;;;;;;5065446;28;20231;-72
2023/05/22 02:04:31;;;;;;;3.38;3.17;;;20.80;95.90;;;;;;5065964;28;20760;-73
2023/05/22 02:06:59;;;;;;;2.92;2.72;;;20.80;96.10;;;;;;5066423;28;20637;-74
2023/05/22 02:09:30;;;;;;;3.00;2.80;;;20.70;96.10;;;;;;5065931;28;20212;-75
2023/05/22 02:11:57;;;;;;;3.90;2.88;;;20.70;96.20;;;;;;5065754;28;20717;-73
2023/05/22 02:14:25;;;;;;;5.35;3.55;;;20.60;96.20;;;;;;5066116;28;20242;-72
2023/05/22 02:16:52;;;;;;;3.17;2.88;;;20.60;96.30;;;;;;5065051;28;20248;-72
2023/05/22 02:19:19;;;;;;;2.97;2.78;;;20.60;96.30;;;;;;5065585;28;20290;-72
2023/05/22 02:21:47;;;;;;;3.40;3.10;;;20.50;96.30;;;;;;5065264;28;20203;-72
2023/05/22 02:24:14;;;;;;;5.78;2.85;;;20.50;96.60;;;;;;5053656;28;20296;-72
2023/05/22 02:26:42;;;;;;;4.10;3.42;;;20.50;96.20;;;;;;5057477;28;20269;-72
2023/05/22 02:29:09;;;;;;;3.65;3.13;;;20.50;96.30;;;;;;5051697;28;20211;-72
2023/05/22 02:31:36;;;;;;;2.92;2.72;;;20.50;96.30;;;;;;5043975;28;20243;-72
2023/05/22 02:34:04;;;;;;;3.65;2.80;;;20.40;96.30;;;;;;5043909;28;20247;-72
2023/05/22 02:36:31;;;;;;;3.55;2.95;;;20.40;96.40;;;;;;5044063;28;20212;-72
2023/05/22 02:38:59;;;;;;;3.53;3.22;;;20.40;96.40;;;;;;5045090;28;20699;-72
2023/05/22 02:41:26;;;;;;;4.82;3.35;;;20.30;96.40;;;;;;5063668;28;20207;-72
2023/05/22 02:43:53;;;;;;;4.00;3.00;;;20.30;96.60;;;;;;5064141;28;20233;-72
2023/05/22 02:46:20;;;;;;;5.82;3.22;;;20.30;96.70;;;;;;5063665;28;20211;-73
2023/05/22 02:48:47;;;;;;;3.30;3.00;;;20.30;96.60;;;;;;5064279;28;20370;-72
2023/05/22 02:51:14;;;;;;;3.50;3.20;;;20.30;96.80;;;;;;5063894;28;20330;-72
2023/05/22 02:53:41;;;;;;;3.45;3.00;;;20.30;96.80;;;;;;5063845;28;20227;-72
2023/05/22 02:56:10;;;;;;;3.17;2.97;;;20.30;96.80;;;;;;5064378;28;20211;-72
2023/05/22 02:58:37;;;;;;;3.30;3.10;;;20.20;96.80;;;;;;5063889;28;20294;-73
2023/05/22 03:01:07;;;;;;;3.40;3.13;;;20.20;96.80;;;;;;5063357;28;20315;-71
2023/05/22 03:03:35;;;;;;;4.00;3.08;;;20.20;97.00;;;;;;5063928;28;20231;-72
2023/05/22 03:06:03;;;;;;;3.95;3.28;;;20.20;97.10;;;;;;5053130;28;20682;-72
2023/05/22 03:08:30;;;;;;;5.85;3.10;;;20.20;97.60;;;;;;5051722;28;20203;-72
2023/05/22 03:10:58;;;;;;;4.30;3.23;;;20.20;97.20;;;;;;5065271;28;20741;-72
2023/05/22 03:13:26;;;;;;;4.87;3.30;;;20.10;97.10;;;;;;5064656;28;20243;-72
2023/05/22 03:15:53;;;;;;;4.47;3.40;;;20.10;97.00;;;;;;5065142;28;20318;-72
2023/05/22 03:18:21;;;;;;;4.28;3.65;;;20.10;97.50;;;;;;5064867;28;20235;-72
2023/05/22 03:20:48;;;;;;;5.28;3.30;;;20.10;97.30;;;;;;5064893;28;20570;-72
2023/05/22 03:23:15;;;;;;;3.72;3.42;;;20.00;97.40;;;;;;5064604;28;20338;-72
2023/05/22 03:25:42;;;;;;;3.53;3.23;;;20.00;97.50;;;;;;5064631;28;20734;-72
2023/05/22 03:28:09;;;;;;;5.50;3.53;;;19.90;97.60;;;;;;5065144;28;20290;-72
2023/05/22 03:30:37;;;;;;;4.18;3.47;;;20.00;97.80;;;;;;5064629;28;20331;-72
2023/05/22 03:33:04;;;;;;;5.18;3.25;;;20.00;97.70;;;;;;5065147;28;20286;-72
2023/05/22 03:35:31;;;;;;;4.90;3.05;;;19.90;97.70;;;;;;5065133;28;20226;-72
2023/05/22 03:37:58;;;;;;;4.50;3.63;;;19.90;97.70;;;;;;5067336;28;20302;-72
2023/05/22 03:40:27;;;;;;;3.63;3.20;;;19.90;97.80;;;;;;5068399;28;20231;-72
2023/05/22 03:42:54;;;;;;;5.28;3.13;;;19.90;97.90;;;;;;5068124;28;20322;-72
2023/05/22 03:45:21;;;;;;;4.47;3.83;;;19.90;97.80;;;;;;5068398;28;20219;-72
2023/05/22 03:47:50;;;;;;;3.90;3.58;;;19.90;98.00;;;;;;5050548;28;20216;-72
2023/05/22 03:50:16;;;;;;;4.65;3.10;;;19.90;98.00;;;;;;5048323;28;20678;-72
2023/05/22 03:52:43;;;;;;;3.80;3.00;;;19.80;98.00;;;;;;5048300;28;20295;-72
2023/05/22 03:55:10;;;;;;;5.80;3.25;;;19.80;98.00;;;;;;5047626;28;20204;-72
2023/05/22 03:57:37;;;;;;;3.80;3.50;;;19.80;98.20;;;;;;5047904;28;20795;-72
2023/05/22 04:00:08;;;;;;;3.60;3.30;;;19.80;98.00;;;;;;5048277;28;20204;-72
2023/05/22 04:02:37;;;;;;;3.73;3.30;;;19.80;98.00;;;;;;5054007;28;20702;-72
2023/05/22 04:05:08;;;;;;;3.80;3.50;;;19.80;98.00;;;;;;5067470;28;20673;-72
2023/05/22 04:07:35;;;;;;;3.87;2.80;;;19.80;98.30;;;;;;5068039;28;20208;-72
2023/05/22 04:10:02;;;;;;;4.53;3.50;;;19.80;98.40;;;;;;5067994;28;20203;-72
2023/05/22 04:12:29;;;;;;;3.93;3.33;;;19.80;98.30;;;;;;5067627;28;20330;-72
2023/05/22 04:14:56;;;;;;;5.80;3.37;;;19.80;98.40;;;;;;5067959;28;20257;-72
2023/05/22 04:17:23;;;;;;;5.85;3.40;;;19.80;98.40;;;;;;5067486;28;20239;-72
2023/05/22 04:19:50;;;;;;;3.78;3.50;;;19.80;98.20;;;;;;5067312;28;20812;-72
2023/05/22 04:22:18;;;;;;;5.93;3.40;;;19.90;98.50;;;;;;5067624;28;20268;-72
2023/05/22 04:24:47;;;;;;;3.25;3.03;;;19.90;98.50;;;;;;5067559;28;20214;-72
2023/05/22 04:27:14;;;;;;;7.10;3.33;;;19.90;98.40;;;;;;5067271;28;20207;-72
2023/05/22 04:29:43;;;;;;;4.63;3.53;;;20.00;98.70;;;;;;5067162;28;20242;-73
2023/05/22 04:32:10;;;;;;;6.57;3.67;;;20.00;98.30;;;;;;5067458;28;20214;-72
2023/05/22 04:34:37;;;;;;;5.63;3.55;;;20.00;98.30;;;;;;5066828;28;20698;-72
2023/05/22 04:37:05;;;;;;;3.55;3.25;;;20.00;98.20;;;;;;5066920;28;20243;-72
2023/05/22 04:39:33;;;;;;;6.68;3.35;;;20.10;98.40;;;;;;5067090;28;20259;-72
2023/05/22 04:42:04;;;;;;;3.65;3.25;;;20.10;98.20;;;;;;5067549;28;20294;-72
2023/05/22 04:44:33;;;;;;;5.70;3.50;;;20.10;98.30;;;;;;5066716;28;20623;-73
2023/05/22 04:47:00;;;;;;;4.57;3.43;;;20.10;98.40;;;;;;5067130;28;20219;-72
2023/05/22 04:49:27;;;;;;;3.83;3.63;;;20.00;98.60;;;;;;5067309;28;20243;-72
2023/05/22 04:51:56;;;;;;;6.68;3.72;;;20.00;99.00;;;;;;5066862;28;20978;-72
2023/05/22 04:54:23;;;;;;;4.63;3.53;;;20.00;99.10;;;;;;5067499;28;20265;-72
2023/05/22 04:56:51;;;;;;;5.35;3.70;;;20.00;99.00;;;;;;5067424;28;20215;-72
2023/05/22 04:59:22;;;;;;;4.25;3.53;;;20.00;99.10;;;;;;5067076;28;20219;-73
2023/05/22 05:01:49;;;;;;;21.67;4.82;;;20.10;99.20;;;;;;5066925;28;20199;-72
2023/05/22 05:04:16;;;;;;;10.88;4.13;;;20.10;99.50;;;;;;5065712;28;20270;-72
2023/05/22 05:06:43;;;;;;;4.70;3.80;;;20.10;99.40;;;;;;5046892;28;20219;-72
2023/05/22 05:09:11;;;;;;;4.10;3.80;;;20.10;99.50;;;;;;5046717;28;20219;-73
2023/05/22 05:11:37;;;;;;;4.97;3.65;;;20.00;99.50;;;;;;5046351;28;20208;-73
2023/05/22 05:14:06;;;;;;;43.05;6.18;;;20.10;99.40;;;;;;5046483;28;20235;-73
2023/05/22 05:16:33;;;;;;;7.00;4.07;;;20.00;99.30;;;;;;5057662;28;20852;-72
2023/05/22 05:19:00;;;;;;;5.70;3.80;;;20.00;99.50;;;;;;5066271;28;20290;-73
2023/05/22 05:21:27;;;;;;;4.15;3.75;;;20.00;99.40;;;;;;5066184;28;20231;-72
2023/05/22 05:23:54;;;;;;;4.77;3.40;;;20.00;99.50;;;;;;5054127;28;20232;-72
2023/05/22 05:26:22;;;;;;;5.28;3.85;;;20.00;99.30;;;;;;5046025;28;20294;-72
2023/05/22 05:28:50;;;;;;;11.93;4.13;;;19.90;99.20;;;;;;5046153;28;20208;-72
2023/05/22 05:31:19;;;;;;;10.60;3.93;;;19.90;99.50;;;;;;5046472;28;20215;-73
2023/05/22 05:33:46;;;;;;;6.38;3.95;;;19.80;99.50;;;;;;5046057;28;20725;-73
2023/05/22 05:36:13;;;;;;;13.02;4.70;;;19.90;99.70;;;;;;5046063;28;20299;-72
2023/05/22 05:38:40;;;;;;;4.88;3.90;;;19.90;99.70;;;;;;5045811;28;20315;-72
2023/05/22 05:41:06;;;;;;;6.47;3.53;;;19.90;99.70;;;;;;5046116;28;20207;-72
2023/05/22 05:43:33;;;;;;;5.57;4.10;;;19.90;99.70;;;;;;5045868;28;20224;-72
2023/05/22 05:46:00;;;;;;;4.87;4.03;;;20.00;99.80;;;;;;5048043;28;20749;-72
2023/05/22 05:48:28;;;;;;;6.90;3.80;;;20.10;99.70;;;;;;5065700;28;20200;-72
2023/05/22 05:50:55;;;;;;;5.05;3.80;;;20.10;99.80;;;;;;5065995;28;20301;-72
2023/05/22 05:53:22;;;;;;;4.38;3.55;;;20.10;99.80;;;;;;5065820;28;20643;-72
2023/05/22 05:55:49;;;;;;;5.37;3.47;;;20.10;99.90;;;;;;5066020;28;20298;-72
2023/05/22 05:58:16;;;;;;;13.50;4.35;;;20.10;99.90;;;;;;5065741;28;20211;-73
2023/05/22 06:00:43;;;;;;;6.50;4.07;;;20.10;99.90;;;;;;5065978;28;20215;-72
2023/05/22 06:03:10;;;;;;;4.63;3.50;;;20.10;99.90;;;;;;5065802;28;20223;-72
2023/05/22 06:05:38;;;;;;;5.20;4.20;;;20.10;99.90;;;;;;5065534;28;20207;-73
2023/05/22 06:08:07;;;;;;;46.47;8.03;;;20.10;99.80;;;;;;5065667;28;20286;-72
2023/05/22 06:10:34;;;;;;;12.68;4.47;;;20.10;99.90;;;;;;5065356;28;20217;-73
2023/05/22 06:13:01;;;;;;;9.30;4.53;;;20.20;99.90;;;;;;5060632;28;20234;-72
2023/05/22 06:15:29;;;;;;;8.60;4.72;;;20.20;99.90;;;;;;5065300;28;20210;-73
2023/05/22 06:17:56;;;;;;;15.38;4.90;;;20.30;99.90;;;;;;5065343;28;20211;-74
2023/05/22 06:20:24;;;;;;;5.82;4.30;;;20.40;99.90;;;;;;5065136;28;20261;-72
2023/05/22 06:22:52;;;;;;;5.18;3.97;;;20.40;99.90;;;;;;5065526;28;20290;-72
2023/05/22 06:25:19;;;;;;;7.95;3.92;;;20.50;99.90;;;;;;5065358;28;20298;-73
2023/05/22 06:27:46;;;;;;;9.80;3.92;;;20.40;99.90;;;;;;5065912;28;20298;-73
2023/05/22 06:30:14;;;;;;;6.13;4.18;;;20.50;99.90;;;;;;5065233;28;20749;-72
2023/05/22 06:32:41;;;;;;;7.88;4.10;;;20.60;99.90;;;;;;5065712;28;20243;-72
2023/05/22 06:35:09;;;;;;;4.40;3.80;;;20.60;99.90;;;;;;5065577;28;20317;-73
2023/05/22 06:37:37;;;;;;;7.18;3.97;;;20.70;99.90;;;;;;5065346;28;20254;-73
2023/05/22 06:40:07;;;;;;;7.43;4.47;;;20.70;99.90;;;;;;5065362;28;20303;-72
2023/05/22 06:42:34;;;;;;;7.32;3.90;;;20.70;99.90;;;;;;5065496;28;20305;-72
2023/05/22 06:45:01;;;;;;;7.97;4.63;;;20.70;99.90;;;;;;5065143;28;20231;-73
2023/05/22 06:47:28;;;;;;;8.15;4.38;;;20.80;99.90;;;;;;5051043;28;20212;-72
2023/05/22 06:49:54;;;;;;;10.50;4.40;;;20.80;99.90;;;;;;5045693;28;20331;-72
2023/05/22 06:52:21;;;;;;;6.75;4.32;;;20.80;99.90;;;;;;5045154;28;20308;-72
2023/05/22 06:54:48;;;;;;;9.63;4.20;;;20.90;99.90;;;;;;5045625;28;20670;-72
2023/05/22 06:57:16;;;;;;;6.88;4.32;;;20.90;99.90;;;;;;5045858;28;20204;-72
2023/05/22 06:59:43;;;;;;;4.90;4.45;;;20.90;99.90;;;;;;5045597;28;20204;-72
2023/05/22 07:02:10;;;;;;;18.17;5.30;;;21.00;99.90;;;;;;5061690;28;20290;-72
2023/05/22 07:04:37;;;;;;;8.20;4.03;;;21.10;99.90;;;;;;5064786;28;20819;-72
2023/05/22 07:07:04;;;;;;;8.18;4.13;;;21.10;99.90;;;;;;5065150;28;20644;-72
2023/05/22 07:09:31;;;;;;;12.85;5.00;;;21.10;99.90;;;;;;5060123;28;20214;-72
2023/05/22 07:11:58;;;;;;;5.43;4.40;;;21.20;99.90;;;;;;5066084;28;20242;-72
2023/05/22 07:14:26;;;;;;;4.97;3.80;;;21.20;99.90;;;;;;5068633;28;20207;-72
2023/05/22 07:16:53;;;;;;;6.93;4.10;;;21.20;99.90;;;;;;5068329;28;20307;-72
2023/05/22 07:19:20;;;;;;;6.13;4.40;;;21.20;99.90;;;;;;5068209;28;20745;-72
2023/05/22 07:21:47;;;;;;;12.77;4.65;;;21.20;99.90;;;;;;5068334;28;20656;-72
2023/05/22 07:24:14;;;;;;;6.15;4.32;;;21.20;99.90;;;;;;5068386;28;20321;-72
2023/05/22 07:26:45;;;;;;;6.53;4.53;;;21.20;99.90;;;;;;5068115;28;20213;-72
2023/05/22 07:29:12;;;;;;;6.93;4.22;;;21.30;99.90;;;;;;5068282;28;20809;-72
2023/05/22 07:31:41;;;;;;;7.80;4.50;;;21.30;99.90;;;;;;5067924;28;20208;-72
2023/05/22 07:34:08;;;;;;;8.75;4.55;;;21.40;99.90;;;;;;5068202;28;20213;-72
2023/05/22 07:36:35;;;;;;;7.57;4.50;;;21.40;99.90;;;;;;5068083;28;20973;-72
2023/05/22 07:39:01;;;;;;;5.72;4.18;;;21.50;99.90;;;;;;5068419;28;20277;-72
2023/05/22 07:41:28;;;;;;;28.25;5.70;;;21.50;99.90;;;;;;5068090;28;20701;-72
2023/05/22 07:43:55;;;;;;;11.95;4.47;;;21.60;99.90;;;;;;5067800;28;20686;-72
2023/05/22 07:46:22;;;;;;;9.10;4.78;;;21.60;99.90;;;;;;5068232;28;20243;-72
2023/05/22 07:48:50;;;;;;;6.50;4.03;;;21.70;99.90;;;;;;5067948;28;20954;-73
2023/05/22 07:51:17;;;;;;;6.75;4.90;;;21.70;99.90;;;;;;5068111;28;20211;-72
2023/05/22 07:53:44;;;;;;;7.78;4.65;;;21.80;99.90;;;;;;5067862;28;20207;-73
2023/05/22 07:56:12;;;;;;;16.38;5.50;;;21.80;99.90;;;;;;5068174;28;20322;-73
2023/05/22 07:58:39;;;;;;;8.13;4.65;;;21.90;99.90;;;;;;5067920;28;20215;-73
2023/05/22 08:01:07;;;;;;;5.93;4.15;;;21.90;99.90;;;;;;5068004;28;20215;-72
2023/05/22 08:03:34;;;;;;;4.57;4.15;;;22.00;99.90;;;;;;5067682;28;20208;-73
2023/05/22 08:06:04;;;;;;;10.27;4.53;;;22.00;99.90;;;;;;5068017;28;20306;-72
2023/05/22 08:08:31;;;;;;;5.68;4.20;;;22.10;99.90;;;;;;5067865;28;20208;-73
2023/05/22 08:10:58;;;;;;;7.18;4.22;;;22.20;99.90;;;;;;5068203;28;20211;-72
2023/05/22 08:13:25;;;;;;;6.72;4.75;;;22.20;99.90;;;;;;5067572;28;20244;-73
2023/05/22 08:15:52;;;;;;;7.30;4.05;;;22.30;99.90;;;;;;5067274;28;20918;-72
2023/05/22 08:18:22;;;;;;;6.45;4.72;;;22.30;99.90;;;;;;5067782;28;20668;-73
2023/05/22 08:20:51;;;;;;;9.63;4.38;;;22.40;99.90;;;;;;5068156;28;20204;-73
2023/05/22 08:23:19;;;;;;;5.43;4.32;;;22.40;99.90;;;;;;5060063;28;20687;-73
2023/05/22 08:25:46;;;;;;;5.43;4.07;;;22.50;99.80;;;;;;5047508;28;20243;-73
2023/05/22 08:28:13;;;;;;;6.25;4.75;;;22.50;99.70;;;;;;5047309;28;20208;-72
2023/05/22 08:30:40;;;;;;;5.78;3.58;;;22.50;99.70;;;;;;5047242;28;20765;-72
2023/05/22 08:33:07;;;;;;;6.50;4.10;;;22.50;99.90;;;;;;5047457;28;20845;-73
2023/05/22 08:35:34;;;;;;;5.25;3.60;;;22.50;99.90;;;;;;5047023;28;20793;-73
2023/05/22 08:38:00;;;;;;;5.38;4.20;;;22.50;99.70;;;;;;5047441;28;20668;-73
2023/05/22 08:40:35;;;;;;;6.45;3.97;;;22.60;99.90;;;;;;5047475;28;20208;-72
2023/05/22 08:43:02;;;;;;;8.85;4.00;;;22.60;99.50;;;;;;5047652;28;20199;-73
2023/05/22 08:45:32;;;;;;;7.03;4.22;;;22.70;99.40;;;;;;5047133;28;20235;-73
2023/05/22 08:48:03;;;;;;;7.85;4.20;;;22.80;99.50;;;;;;5066014;28;20652;-72
2023/05/22 08:50:30;;;;;;;24.45;5.85;;;22.80;99.30;;;;;;5067032;28;20238;-72
2023/05/22 08:53:01;;;;;;;12.45;4.40;;;22.90;99.60;;;;;;5067021;28;20290;-73
2023/05/22 08:55:30;;;;;;;7.55;4.30;;;23.00;99.10;;;;;;5066750;28;20699;-73
2023/05/22 08:57:57;;;;;;;6.13;4.05;;;23.00;99.20;;;;;;5067106;28;20291;-73
2023/05/22 09:00:24;;;;;;;4.13;3.67;;;23.00;99.20;;;;;;5066210;28;20249;-73
2023/05/22 09:02:52;;;;;;;5.45;3.58;;;23.10;98.80;;;;;;5066927;28;20293;-73
2023/05/22 09:05:19;;;;;;;4.45;3.50;;;23.20;98.80;;;;;;5066419;28;20228;-73
2023/05/22 09:07:47;;;;;;;6.88;4.13;;;23.20;98.90;;;;;;5066633;28;20954;-72
2023/05/22 09:10:14;;;;;;;5.60;3.80;;;23.30;99.40;;;;;;5066658;28;20211;-73
2023/05/22 09:13:06;;;;;;;10.70;3.75;;;23.40;99.50;;;;;;5066213;28;20266;-73
2023/05/22 09:15:33;;;;;;;5.28;3.45;;;23.50;99.20;;;;;;5066626;28;20202;-73
2023/05/22 09:18:01;;;;;;;10.52;3.60;;;23.50;98.10;;;;;;5066427;28;20250;-73
2023/05/22 09:20:27;;;;;;;7.53;4.20;;;23.50;97.30;;;;;;5066617;28;20204;-71
2023/05/22 09:22:55;;;;;;;12.57;3.67;;;23.50;97.50;;;;;;5066032;28;20192;-71
2023/05/22 09:25:22;;;;;;;11.45;4.20;;;23.60;97.10;;;;;;5066740;28;20292;-71
2023/05/22 09:27:49;;;;;;;17.35;4.85;;;23.50;97.20;;;;;;5066813;28;20251;-71
2023/05/22 09:30:18;;;;;;;14.80;4.80;;;23.50;97.50;;;;;;5066169;28;20272;-71
2023/05/22 09:32:46;;;;;;;9.93;3.83;;;23.60;97.60;;;;;;5066186;28;20218;-71
2023/05/22 09:35:14;;;;;;;34.03;5.82;;;23.60;97.40;;;;;;5065498;28;20211;-71
2023/05/22 09:37:41;;;;;;;12.88;4.93;;;23.70;97.50;;;;;;5066230;28;20786;-71
2023/05/22 09:40:12;;;;;;;4.35;3.50;;;23.70;98.20;;;;;;5066399;28;20234;-71
2023/05/22 09:42:43;;;;;;;4.35;3.58;;;23.80;97.60;;;;;;5065929;28;20282;-71
2023/05/22 09:45:10;;;;;;;3.72;3.38;;;23.90;98.00;;;;;;5065788;28;20319;-71
2023/05/22 09:47:39;;;;;;;3.60;3.28;;;23.90;97.80;;;;;;5065752;28;20322;-70
2023/05/22 09:50:09;;;;;;;6.20;4.10;;;24.00;97.20;;;;;;5066035;28;20265;-71
2023/05/22 09:52:37;;;;;;;6.85;3.72;;;23.90;97.30;;;;;;5066036;28;20291;-71
2023/05/22 09:55:06;;;;;;;5.18;3.53;;;24.00;97.20;;;;;;5066371;28;20239;-71
2023/05/22 09:57:40;;;;;;;148.77;15.05;;;24.00;97.10;;;;;;5063797;28;20690;-71
2023/05/22 10:00:11;;;;;;;6.45;3.42;;;24.10;97.60;;;;;;5066160;28;20213;-72
2023/05/22 10:02:43;;;;;;;4.07;3.40;;;24.10;97.00;;;;;;5065722;28;20200;-72
2023/05/22 10:05:11;;;;;;;5.38;3.55;;;24.20;97.10;;;;;;5065850;28;20229;-73
2023/05/22 10:07:48;;;;;;;5.57;3.72;;;24.20;97.40;;;;;;5065935;28;20209;-72
2023/05/22 10:10:17;;;;;;;3.70;3.40;;;24.30;97.00;;;;;;5065946;28;20249;-72
2023/05/22 10:12:51;;;;;;;4.05;3.55;;;24.30;97.00;;;;;;5065605;28;20334;-72
2023/05/22 10:15:19;;;;;;;4.03;3.58;;;24.30;96.80;;;;;;5065543;28;20201;-72
2023/05/22 10:17:48;;;;;;;8.30;3.65;;;24.30;96.60;;;;;;5065776;28;20284;-72
2023/05/22 10:20:16;;;;;;;5.05;3.40;;;24.40;96.70;;;;;;5065819;28;20290;-72
2023/05/22 10:22:43;;;;;;;4.05;3.67;;;24.50;96.50;;;;;;5065689;28;20211;-72
2023/05/22 10:25:10;;;;;;;8.20;3.65;;;24.60;96.80;;;;;;5065173;28;20341;-72
2023/05/22 10:27:38;;;;;;;8.80;3.75;;;24.60;96.70;;;;;;5065605;28;20898;-72
2023/05/22 10:30:18;;;;;;;6.47;3.08;;;24.70;96.70;;;;;;5065185;28;20203;-72
2023/05/22 10:32:52;;;;;;;3.80;3.45;;;24.70;96.50;;;;;;5065738;28;20744;-72
2023/05/22 10:35:24;;;;;;;5.60;3.40;;;24.80;96.60;;;;;;5065611;28;20218;-72
2023/05/22 10:37:55;;;;;;;3.95;3.60;;;24.70;96.20;;;;;;5065267;28;20314;-72
2023/05/22 10:40:27;;;;;;;3.40;3.10;;;24.80;95.60;;;;;;5065602;28;20199;-72
2023/05/22 10:42:59;;;;;;;3.80;3.30;;;24.90;96.30;;;;;;5065348;28;20287;-72
2023/05/22 10:45:28;;;;;;;5.57;3.00;;;24.90;96.30;;;;;;5065248;28;20314;-72
2023/05/22 10:48:11;;;;;;;3.35;3.10;;;25.00;96.00;;;;;;5069666;28;20218;-72
2023/05/22 10:50:38;;;;;;;6.70;3.40;;;25.00;95.30;;;;;;5069657;28;20630;-72
2023/05/22 10:53:24;;;;;;;4.43;3.60;;;25.10;95.90;;;;;;5069134;28;20290;-72
2023/05/22 10:55:52;;;;;;;5.18;3.13;;;25.20;96.00;;;;;;5069169;28;20302;-72
2023/05/22 10:58:25;;;;;;;8.30;4.00;;;25.30;95.70;;;;;;5069264;28;20226;-72
2023/05/22 11:01:12;;;;;;;4.85;3.53;;;25.30;95.50;;;;;;5069185;28;20742;-72
2023/05/22 11:03:54;;;;;;;6.45;3.25;;;25.40;95.20;;;;;;5069124;28;20242;-72
2023/05/22 11:06:37;;;;;;;4.47;3.40;;;25.40;94.70;;;;;;5069273;28;20310;-72
2023/05/22 11:09:18;;;;;;;7.50;3.42;;;25.40;95.00;;;;;;5069392;28;20295;-72
2023/05/22 11:11:45;;;;;;;7.15;3.40;;;25.50;94.90;;;;;;5069028;28;20235;-72
2023/05/22 11:14:13;;;;;;;4.38;3.00;;;25.60;94.80;;;;;;5069017;28;20196;-72
2023/05/22 11:16:40;;;;;;;5.45;3.50;;;25.60;94.20;;;;;;5068348;28;20218;-72
2023/05/22 11:19:09;;;;;;;4.30;3.10;;;25.70;94.40;;;;;;5068386;28;20761;-72
2023/05/22 11:21:42;;;;;;;4.43;3.10;;;25.90;94.10;;;;;;5068537;28;20299;-72
2023/05/22 11:24:09;;;;;;;4.05;3.08;;;25.90;93.70;;;;;;5054821;28;20254;-72
2023/05/22 11:26:36;;;;;;;3.13;3.00;;;25.90;93.30;;;;;;5048417;28;20232;-72
2023/05/22 11:29:07;;;;;;;23.98;4.65;;;25.90;93.30;;;;;;5048775;28;20208;-72
2023/05/22 11:31:35;;;;;;;6.70;3.30;;;25.90;93.10;;;;;;5048669;28;20285;-73
2023/05/22 11:34:02;;;;;;;4.07;3.40;;;25.90;93.40;;;;;;5048812;28;20208;-72
2023/05/22 11:36:31;;;;;;;9.55;3.80;;;26.00;93.20;;;;;;5048103;28;20208;-72
2023/05/22 11:38:59;;;;;;;6.55;3.30;;;26.00;93.30;;;;;;5048733;28;20239;-72
2023/05/22 11:41:30;;;;;;;3.13;2.92;;;26.00;93.10;;;;;;5048448;28;20615;-72
2023/05/22 11:43:57;;;;;;;4.93;3.30;;;26.10;92.30;;;;;;5048793;28;20279;-72
2023/05/22 11:46:24;;;;;;;5.53;3.30;;;26.20;92.70;;;;;;5048004;28;20245;-72
2023/05/22 11:48:52;;;;;;;3.42;3.00;;;26.50;93.00;;;;;;5048652;28;20230;-72
2023/05/22 11:51:19;;;;;;;3.30;2.92;;;26.50;91.90;;;;;;5066007;28;20211;-72
2023/05/22 11:53:48;;;;;;;4.38;3.17;;;26.60;92.30;;;;;;5068152;28;20206;-72
2023/05/22 11:56:14;;;;;;;5.93;3.25;;;26.70;91.60;;;;;;5068438;28;20199;-72
2023/05/22 11:58:41;;;;;;;4.63;3.35;;;26.80;91.50;;;;;;5067525;28;20299;-72
2023/05/22 12:01:08;;;;;;;3.40;3.10;;;27.00;91.80;;;;;;5067924;28;20211;-72
2023/05/22 12:03:35;;;;;;;10.13;3.65;;;27.20;91.60;;;;;;5067878;28;20294;-72
2023/05/22 12:06:03;;;;;;;3.28;2.97;;;27.20;91.20;;;;;;5068241;28;20237;-72
2023/05/22 12:08:30;;;;;;;3.28;2.72;;;27.20;90.10;;;;;;5067863;28;20239;-71
2023/05/22 12:10:58;;;;;;;4.00;3.17;;;27.20;88.50;;;;;;5068201;28;20204;-72
2023/05/22 12:13:27;;;;;;;3.90;3.00;;;27.20;89.60;;;;;;5067408;28;20810;-72
2023/05/22 12:15:57;;;;;;;3.50;3.20;;;27.30;89.10;;;;;;5067520;28;20752;-72
2023/05/22 12:18:24;;;;;;;10.38;3.05;;;27.30;87.90;;;;;;5067719;28;20218;-71
2023/05/22 12:20:55;;;;;;;4.90;3.08;;;27.40;88.20;;;;;;5067833;28;20306;-72
2023/05/22 12:23:24;;;;;;;7.15;3.08;;;27.50;87.70;;;;;;5067611;28;20286;-72
2023/05/22 12:26:00;;;;;;;3.33;3.03;;;27.60;86.90;;;;;;5067303;28;20586;-72
2023/05/22 12:28:28;;;;;;;4.45;2.95;;;27.60;87.90;;;;;;5067394;28;20287;-72
2023/05/22 12:30:55;;;;;;;5.68;2.70;;;27.70;87.10;;;;;;5067216;28;20808;-72
2023/05/22 12:33:27;;;;;;;4.10;2.80;;;27.90;86.80;;;;;;5067093;28;20584;-72
2023/05/22 12:35:57;;;;;;;6.35;3.22;;;28.10;87.00;;;;;;5067376;28;20199;-72
2023/05/22 12:38:25;;;;;;;7.40;3.05;;;28.20;86.80;;;;;;5067100;28;20227;-72
2023/05/22 12:40:53;;;;;;;4.40;2.92;;;28.20;84.60;;;;;;5068064;28;20235;-73
2023/05/22 12:43:22;;;;;;;4.10;2.90;;;28.30;85.10;;;;;;5067411;28;20211;-72
2023/05/22 12:45:49;;;;;;;27.92;4.97;;;28.40;85.70;;;;;;5066742;28;21069;-72
2023/05/22 12:48:16;;;;;;;4.35;2.85;;;28.40;83.30;;;;;;5067151;28;20252;-72
2023/05/22 12:50:45;;;;;;;3.47;3.10;;;28.60;83.90;;;;;;5067244;28;20207;-71
2023/05/22 12:53:11;;;;;;;3.42;3.00;;;28.60;82.30;;;;;;5067145;28;20211;-72